sensor_id;sensor_type;location;lat;lon;timestamp;P1;durP1;ratioP1;P2;durP2;ratioP2
75139;SDS011;63714;55.812;37.658;2023-04-15T00:01:18;5.70;;;1.13;;
75139;SDS011;63714;55.812;37.658;2023-04-15T00:03:45;1.70;;;0.70;;
75139;SDS011;63714;55.812;37.658;2023-04-15T00:06:11;2.17;;;0.77;;
75139;SDS011;63714;55.812;37.658;2023-04-15T00:08:38;1.98;;;0.70;;
75139;SDS011;63714;55.812;37.658;2023-04-15T00:11:04;1.70;;;0.88;;
75139;SDS011;63714;55.812;37.658;2023-04-15T00:13:33;1.67;;;0.70;;
75139;SDS011;63714;55.812;37.658;2023-04-15T00:18:24;1.20;;;0.65;;
75139;SDS011;63714;55.812;37.658;2023-04-15T00:20:50;2.70;;;0.98;;
75139;SDS011;63714;55.812;37.658;2023-04-15T00:23:16;1.70;;;0.80;;
75139;SDS011;63714;55.812;37.658;2023-04-15T00:25:42;1.65;;;0.88;;
75139;SDS011;63714;55.812;37.658;2023-04-15T00:28:08;1.60;;;0.77;;
75139;SDS011;63714;55.812;37.658;2023-04-15T00:30:34;1.92;;;0.93;;
75139;SDS011;63714;55.812;37.658;2023-04-15T00:33:00;1.95;;;0.88;;
75139;SDS011;63714;55.812;37.658;2023-04-15T00:35:28;2.35;;;0.75;;
75139;SDS011;63714;55.812;37.658;2023-04-15T00:37:57;2.83;;;0.90;;
75139;SDS011;63714;55.812;37.658;2023-04-15T00:40:23;2.45;;;0.60;;
75139;SDS011;63714;55.812;37.658;2023-04-15T00:42:50;0.98;;;0.50;;
75139;SDS011;63714;55.812;37.658;2023-04-15T00:45:17;1.33;;;0.70;;
75139;SDS011;63714;55.812;37.658;2023-04-15T00:47:43;1.63;;;0.63;;
75139;SDS011;63714;55.812;37.658;2023-04-15T00:50:10;1.27;;;0.77;;
75139;SDS011;63714;55.812;37.658;2023-04-15T00:52:37;1.77;;;1.00;;
75139;SDS011;63714;55.812;37.658;2023-04-15T00:55:03;1.30;;;0.82;;
75139;SDS011;63714;55.812;37.658;2023-04-15T00:57:30;1.98;;;0.80;;
75139;SDS011;63714;55.812;37.658;2023-04-15T00:59:56;1.55;;;0.80;;
75139;SDS011;63714;55.812;37.658;2023-04-15T01:02:22;2.03;;;0.98;;
75139;SDS011;63714;55.812;37.658;2023-04-15T01:04:48;3.00;;;1.30;;
75139;SDS011;63714;55.812;37.658;2023-04-15T01:07:14;2.88;;;0.80;;
75139;SDS011;63714;55.812;37.658;2023-04-15T01:09:40;1.63;;;0.63;;
75139;SDS011;63714;55.812;37.658;2023-04-15T01:12:06;2.58;;;0.90;;
75139;SDS011;63714;55.812;37.658;2023-04-15T01:14:36;4.47;;;0.82;;
75139;SDS011;63714;55.812;37.658;2023-04-15T01:17:02;3.08;;;0.75;;
75139;SDS011;63714;55.812;37.658;2023-04-15T01:19:28;2.30;;;0.77;;
75139;SDS011;63714;55.812;37.658;2023-04-15T01:21:55;2.25;;;1.00;;
75139;SDS011;63714;55.812;37.658;2023-04-15T01:24:21;4.93;;;1.15;;
75139;SDS011;63714;55.812;37.658;2023-04-15T01:26:48;1.08;;;0.65;;
75139;SDS011;63714;55.812;37.658;2023-04-15T01:29:14;2.33;;;1.02;;
75139;SDS011;63714;55.812;37.658;2023-04-15T01:31:43;2.05;;;0.73;;
75139;SDS011;63714;55.812;37.658;2023-04-15T01:34:33;3.65;;;0.80;;
75139;SDS011;63714;55.812;37.658;2023-04-15T01:37:17;1.58;;;0.80;;
75139;SDS011;63714;55.812;37.658;2023-04-15T01:39:43;2.88;;;0.70;;
75139;SDS011;63714;55.812;37.658;2023-04-15T01:42:08;2.17;;;0.88;;
75139;SDS011;63714;55.812;37.658;2023-04-15T01:44:35;1.77;;;0.90;;
75139;SDS011;63714;55.812;37.658;2023-04-15T01:47:02;1.52;;;0.50;;
75139;SDS011;63714;55.812;37.658;2023-04-15T01:49:29;2.70;;;1.10;;
75139;SDS011;63714;55.812;37.658;2023-04-15T01:51:56;1.55;;;0.75;;
75139;SDS011;63714;55.812;37.658;2023-04-15T01:54:23;1.88;;;0.80;;
75139;SDS011;63714;55.812;37.658;2023-04-15T01:56:50;1.70;;;0.75;;
75139;SDS011;63714;55.812;37.658;2023-04-15T01:59:17;3.47;;;0.80;;
75139;SDS011;63714;55.812;37.658;2023-04-15T02:01:44;1.00;;;0.45;;
75139;SDS011;63714;55.812;37.658;2023-04-15T02:04:11;1.60;;;0.65;;
75139;SDS011;63714;55.812;37.658;2023-04-15T02:06:44;1.23;;;0.73;;
75139;SDS011;63714;55.812;37.658;2023-04-15T02:09:11;2.13;;;0.82;;
75139;SDS011;63714;55.812;37.658;2023-04-15T02:11:38;1.80;;;0.80;;
75139;SDS011;63714;55.812;37.658;2023-04-15T02:14:08;2.50;;;0.75;;
75139;SDS011;63714;55.812;37.658;2023-04-15T02:16:35;4.15;;;0.93;;
75139;SDS011;63714;55.812;37.658;2023-04-15T02:19:02;1.95;;;0.65;;
75139;SDS011;63714;55.812;37.658;2023-04-15T02:21:29;1.90;;;0.60;;
75139;SDS011;63714;55.812;37.658;2023-04-15T02:23:56;1.65;;;0.95;;
75139;SDS011;63714;55.812;37.658;2023-04-15T02:26:23;1.10;;;0.75;;
75139;SDS011;63714;55.812;37.658;2023-04-15T02:28:51;1.67;;;0.80;;
75139;SDS011;63714;55.812;37.658;2023-04-15T02:31:17;2.08;;;1.08;;
75139;SDS011;63714;55.812;37.658;2023-04-15T02:33:44;1.85;;;1.10;;
75139;SDS011;63714;55.812;37.658;2023-04-15T02:36:11;1.30;;;0.70;;
75139;SDS011;63714;55.812;37.658;2023-04-15T02:38:38;3.72;;;0.85;;
75139;SDS011;63714;55.812;37.658;2023-04-15T02:41:10;3.20;;;0.90;;
75139;SDS011;63714;55.812;37.658;2023-04-15T02:43:37;1.75;;;0.80;;
75139;SDS011;63714;55.812;37.658;2023-04-15T02:46:05;1.13;;;0.65;;
75139;SDS011;63714;55.812;37.658;2023-04-15T02:48:32;4.68;;;1.10;;
75139;SDS011;63714;55.812;37.658;2023-04-15T02:51:14;2.70;;;1.02;;
75139;SDS011;63714;55.812;37.658;2023-04-15T02:53:43;3.17;;;0.85;;
75139;SDS011;63714;55.812;37.658;2023-04-15T02:56:10;1.55;;;0.90;;
75139;SDS011;63714;55.812;37.658;2023-04-15T02:58:38;4.80;;;0.77;;
75139;SDS011;63714;55.812;37.658;2023-04-15T03:01:09;2.78;;;1.83;;
75139;SDS011;63714;55.812;37.658;2023-04-15T03:03:43;2.03;;;1.15;;
75139;SDS011;63714;55.812;37.658;2023-04-15T03:06:10;1.38;;;0.80;;
75139;SDS011;63714;55.812;37.658;2023-04-15T03:08:37;3.75;;;0.82;;
75139;SDS011;63714;55.812;37.658;2023-04-15T03:11:03;2.22;;;0.95;;
75139;SDS011;63714;55.812;37.658;2023-04-15T03:13:30;4.28;;;0.98;;
75139;SDS011;63714;55.812;37.658;2023-04-15T03:15:57;5.50;;;1.40;;
75139;SDS011;63714;55.812;37.658;2023-04-15T03:18:24;2.50;;;1.00;;
75139;SDS011;63714;55.812;37.658;2023-04-15T03:20:51;4.57;;;1.15;;
75139;SDS011;63714;55.812;37.658;2023-04-15T03:23:17;3.00;;;1.27;;
75139;SDS011;63714;55.812;37.658;2023-04-15T03:25:45;2.50;;;1.08;;
75139;SDS011;63714;55.812;37.658;2023-04-15T03:28:11;2.92;;;1.27;;
75139;SDS011;63714;55.812;37.658;2023-04-15T03:30:38;3.45;;;1.13;;
75139;SDS011;63714;55.812;37.658;2023-04-15T03:33:05;2.72;;;1.00;;
75139;SDS011;63714;55.812;37.658;2023-04-15T03:35:32;2.00;;;0.95;;
75139;SDS011;63714;55.812;37.658;2023-04-15T03:37:59;2.45;;;1.00;;
75139;SDS011;63714;55.812;37.658;2023-04-15T03:40:26;5.20;;;1.20;;
75139;SDS011;63714;55.812;37.658;2023-04-15T03:42:53;2.20;;;1.10;;
75139;SDS011;63714;55.812;37.658;2023-04-15T03:45:20;2.00;;;0.93;;
75139;SDS011;63714;55.812;37.658;2023-04-15T03:47:47;1.75;;;1.10;;
75139;SDS011;63714;55.812;37.658;2023-04-15T03:50:15;3.25;;;1.13;;
75139;SDS011;63714;55.812;37.658;2023-04-15T03:52:42;1.60;;;0.70;;
75139;SDS011;63714;55.812;37.658;2023-04-15T03:55:10;2.45;;;1.23;;
75139;SDS011;63714;55.812;37.658;2023-04-15T03:57:36;3.03;;;1.10;;
75139;SDS011;63714;55.812;37.658;2023-04-15T04:00:04;2.40;;;1.00;;
75139;SDS011;63714;55.812;37.658;2023-04-15T04:02:32;9.07;;;1.30;;
75139;SDS011;63714;55.812;37.658;2023-04-15T04:04:59;2.45;;;0.93;;
75139;SDS011;63714;55.812;37.658;2023-04-15T04:07:26;1.98;;;0.98;;
75139;SDS011;63714;55.812;37.658;2023-04-15T04:09:53;1.63;;;1.00;;
75139;SDS011;63714;55.812;37.658;2023-04-15T04:12:20;4.25;;;0.85;;
75139;SDS011;63714;55.812;37.658;2023-04-15T04:14:47;3.33;;;1.02;;
75139;SDS011;63714;55.812;37.658;2023-04-15T04:17:14;2.30;;;1.02;;
75139;SDS011;63714;55.812;37.658;2023-04-15T04:19:41;2.03;;;0.80;;
75139;SDS011;63714;55.812;37.658;2023-04-15T04:22:07;3.45;;;0.90;;
75139;SDS011;63714;55.812;37.658;2023-04-15T04:24:34;3.58;;;1.00;;
75139;SDS011;63714;55.812;37.658;2023-04-15T04:27:01;3.15;;;1.17;;
75139;SDS011;63714;55.812;37.658;2023-04-15T04:29:28;1.98;;;0.88;;
75139;SDS011;63714;55.812;37.658;2023-04-15T04:31:55;2.00;;;0.93;;
75139;SDS011;63714;55.812;37.658;2023-04-15T04:34:22;1.67;;;1.10;;
75139;SDS011;63714;55.812;37.658;2023-04-15T04:36:49;1.65;;;1.10;;
75139;SDS011;63714;55.812;37.658;2023-04-15T04:39:16;3.47;;;1.10;;
75139;SDS011;63714;55.812;37.658;2023-04-15T04:41:43;3.05;;;0.90;;
75139;SDS011;63714;55.812;37.658;2023-04-15T04:44:10;2.03;;;0.98;;
75139;SDS011;63714;55.812;37.658;2023-04-15T04:46:36;5.05;;;1.08;;
75139;SDS011;63714;55.812;37.658;2023-04-15T04:49:03;2.78;;;1.13;;
75139;SDS011;63714;55.812;37.658;2023-04-15T04:51:30;3.15;;;1.02;;
75139;SDS011;63714;55.812;37.658;2023-04-15T04:53:57;3.47;;;1.23;;
75139;SDS011;63714;55.812;37.658;2023-04-15T04:56:24;2.80;;;1.20;;
75139;SDS011;63714;55.812;37.658;2023-04-15T04:58:51;1.30;;;1.00;;
75139;SDS011;63714;55.812;37.658;2023-04-15T05:01:18;2.70;;;1.30;;
75139;SDS011;63714;55.812;37.658;2023-04-15T05:03:45;3.28;;;1.40;;
75139;SDS011;63714;55.812;37.658;2023-04-15T05:06:12;3.75;;;1.20;;
75139;SDS011;63714;55.812;37.658;2023-04-15T05:08:39;1.75;;;0.90;;
75139;SDS011;63714;55.812;37.658;2023-04-15T05:11:06;4.03;;;1.13;;
75139;SDS011;63714;55.812;37.658;2023-04-15T05:13:33;2.20;;;1.10;;
75139;SDS011;63714;55.812;37.658;2023-04-15T05:16:04;3.15;;;1.20;;
75139;SDS011;63714;55.812;37.658;2023-04-15T05:18:31;2.25;;;0.90;;
75139;SDS011;63714;55.812;37.658;2023-04-15T05:20:58;2.17;;;1.00;;
75139;SDS011;63714;55.812;37.658;2023-04-15T05:23:26;2.45;;;1.10;;
75139;SDS011;63714;55.812;37.658;2023-04-15T05:25:53;3.78;;;1.20;;
75139;SDS011;63714;55.812;37.658;2023-04-15T05:28:19;1.85;;;1.00;;
75139;SDS011;63714;55.812;37.658;2023-04-15T05:30:47;3.15;;;1.58;;
75139;SDS011;63714;55.812;37.658;2023-04-15T05:33:14;4.70;;;1.20;;
75139;SDS011;63714;55.812;37.658;2023-04-15T05:35:41;3.10;;;1.10;;
75139;SDS011;63714;55.812;37.658;2023-04-15T05:38:08;2.35;;;1.60;;
75139;SDS011;63714;55.812;37.658;2023-04-15T05:40:35;2.53;;;1.25;;
75139;SDS011;63714;55.812;37.658;2023-04-15T05:43:02;6.13;;;1.60;;
75139;SDS011;63714;55.812;37.658;2023-04-15T05:45:29;3.92;;;1.25;;
75139;SDS011;63714;55.812;37.658;2023-04-15T05:47:55;6.53;;;1.13;;
75139;SDS011;63714;55.812;37.658;2023-04-15T05:50:22;3.30;;;1.45;;
75139;SDS011;63714;55.812;37.658;2023-04-15T05:52:49;3.40;;;1.80;;
75139;SDS011;63714;55.812;37.658;2023-04-15T05:55:16;2.55;;;1.42;;
75139;SDS011;63714;55.812;37.658;2023-04-15T05:57:43;2.45;;;1.35;;
75139;SDS011;63714;55.812;37.658;2023-04-15T06:00:10;4.20;;;1.98;;
75139;SDS011;63714;55.812;37.658;2023-04-15T06:02:37;3.35;;;0.90;;
75139;SDS011;63714;55.812;37.658;2023-04-15T06:05:05;3.13;;;1.10;;
75139;SDS011;63714;55.812;37.658;2023-04-15T06:07:36;3.13;;;0.98;;
75139;SDS011;63714;55.812;37.658;2023-04-15T06:10:03;4.43;;;1.35;;
75139;SDS011;63714;55.812;37.658;2023-04-15T06:12:31;2.47;;;0.88;;
75139;SDS011;63714;55.812;37.658;2023-04-15T06:14:58;3.38;;;1.00;;
75139;SDS011;63714;55.812;37.658;2023-04-15T06:17:25;2.45;;;1.17;;
75139;SDS011;63714;55.812;37.658;2023-04-15T06:19:51;3.92;;;1.30;;
75139;SDS011;63714;55.812;37.658;2023-04-15T06:22:22;1.65;;;1.10;;
75139;SDS011;63714;55.812;37.658;2023-04-15T06:24:49;1.77;;;1.10;;
75139;SDS011;63714;55.812;37.658;2023-04-15T06:27:22;4.30;;;1.40;;
75139;SDS011;63714;55.812;37.658;2023-04-15T06:29:49;2.67;;;1.15;;
75139;SDS011;63714;55.812;37.658;2023-04-15T06:32:16;2.03;;;1.13;;
75139;SDS011;63714;55.812;37.658;2023-04-15T06:34:43;5.05;;;1.40;;
75139;SDS011;63714;55.812;37.658;2023-04-15T06:37:09;1.70;;;1.02;;
75139;SDS011;63714;55.812;37.658;2023-04-15T06:39:41;3.22;;;1.58;;
75139;SDS011;63714;55.812;37.658;2023-04-15T06:42:09;2.30;;;1.45;;
75139;SDS011;63714;55.812;37.658;2023-04-15T06:44:37;2.10;;;1.05;;
75139;SDS011;63714;55.812;37.658;2023-04-15T06:47:04;2.35;;;1.23;;
75139;SDS011;63714;55.812;37.658;2023-04-15T06:49:31;2.70;;;0.98;;
75139;SDS011;63714;55.812;37.658;2023-04-15T06:51:59;2.28;;;1.23;;
75139;SDS011;63714;55.812;37.658;2023-04-15T06:54:27;4.20;;;1.35;;
75139;SDS011;63714;55.812;37.658;2023-04-15T06:56:55;1.90;;;1.30;;
75139;SDS011;63714;55.812;37.658;2023-04-15T06:59:22;3.55;;;1.33;;
75139;SDS011;63714;55.812;37.658;2023-04-15T07:01:49;3.70;;;1.10;;
75139;SDS011;63714;55.812;37.658;2023-04-15T07:04:16;4.60;;;1.95;;
75139;SDS011;63714;55.812;37.658;2023-04-15T07:06:43;4.80;;;1.00;;
75139;SDS011;63714;55.812;37.658;2023-04-15T07:09:10;4.28;;;1.30;;
75139;SDS011;63714;55.812;37.658;2023-04-15T07:11:37;1.45;;;0.95;;
75139;SDS011;63714;55.812;37.658;2023-04-15T07:14:04;4.72;;;1.63;;
75139;SDS011;63714;55.812;37.658;2023-04-15T07:16:32;1.73;;;1.20;;
75139;SDS011;63714;55.812;37.658;2023-04-15T07:18:59;1.50;;;1.15;;
75139;SDS011;63714;55.812;37.658;2023-04-15T07:21:25;2.50;;;1.10;;
75139;SDS011;63714;55.812;37.658;2023-04-15T07:23:53;4.32;;;1.33;;
75139;SDS011;63714;55.812;37.658;2023-04-15T07:26:24;3.50;;;1.33;;
75139;SDS011;63714;55.812;37.658;2023-04-15T07:28:51;3.15;;;1.40;;
75139;SDS011;63714;55.812;37.658;2023-04-15T07:31:18;5.88;;;1.38;;
75139;SDS011;63714;55.812;37.658;2023-04-15T07:33:44;4.63;;;1.35;;
75139;SDS011;63714;55.812;37.658;2023-04-15T07:36:11;3.25;;;1.20;;
75139;SDS011;63714;55.812;37.658;2023-04-15T07:38:38;3.45;;;1.33;;
75139;SDS011;63714;55.812;37.658;2023-04-15T07:41:05;4.00;;;1.33;;
75139;SDS011;63714;55.812;37.658;2023-04-15T07:43:32;2.38;;;1.48;;
75139;SDS011;63714;55.812;37.658;2023-04-15T07:45:59;4.50;;;2.00;;
75139;SDS011;63714;55.812;37.658;2023-04-15T07:48:26;6.80;;;1.80;;
75139;SDS011;63714;55.812;37.658;2023-04-15T07:50:53;2.63;;;1.15;;
75139;SDS011;63714;55.812;37.658;2023-04-15T07:53:20;3.03;;;1.30;;
75139;SDS011;63714;55.812;37.658;2023-04-15T07:55:47;2.90;;;1.67;;
75139;SDS011;63714;55.812;37.658;2023-04-15T07:58:14;6.32;;;1.35;;
75139;SDS011;63714;55.812;37.658;2023-04-15T08:00:41;6.55;;;1.45;;
75139;SDS011;63714;55.812;37.658;2023-04-15T08:03:07;3.03;;;1.40;;
75139;SDS011;63714;55.812;37.658;2023-04-15T08:05:34;2.90;;;1.85;;
75139;SDS011;63714;55.812;37.658;2023-04-15T08:08:01;2.88;;;1.60;;
75139;SDS011;63714;55.812;37.658;2023-04-15T08:10:28;5.00;;;1.50;;
75139;SDS011;63714;55.812;37.658;2023-04-15T08:12:55;5.07;;;1.60;;
75139;SDS011;63714;55.812;37.658;2023-04-15T08:15:23;4.68;;;1.80;;
75139;SDS011;63714;55.812;37.658;2023-04-15T08:17:50;4.57;;;1.73;;
75139;SDS011;63714;55.812;37.658;2023-04-15T08:20:16;2.67;;;1.67;;
75139;SDS011;63714;55.812;37.658;2023-04-15T08:22:44;5.57;;;1.67;;
75139;SDS011;63714;55.812;37.658;2023-04-15T08:25:13;1.90;;;1.40;;
75139;SDS011;63714;55.812;37.658;2023-04-15T08:27:40;2.45;;;1.42;;
75139;SDS011;63714;55.812;37.658;2023-04-15T08:30:07;2.63;;;1.55;;
75139;SDS011;63714;55.812;37.658;2023-04-15T08:32:34;4.53;;;1.83;;
75139;SDS011;63714;55.812;37.658;2023-04-15T08:35:01;1.67;;;1.45;;
75139;SDS011;63714;55.812;37.658;2023-04-15T08:37:28;5.53;;;1.58;;
75139;SDS011;63714;55.812;37.658;2023-04-15T08:39:55;2.97;;;1.45;;
75139;SDS011;63714;55.812;37.658;2023-04-15T08:42:27;5.88;;;1.60;;
75139;SDS011;63714;55.812;37.658;2023-04-15T08:45:00;2.72;;;1.20;;
75139;SDS011;63714;55.812;37.658;2023-04-15T08:47:30;6.50;;;1.55;;
75139;SDS011;63714;55.812;37.658;2023-04-15T08:49:58;4.80;;;1.80;;
75139;SDS011;63714;55.812;37.658;2023-04-15T08:52:25;3.33;;;1.25;;
75139;SDS011;63714;55.812;37.658;2023-04-15T08:54:56;2.97;;;1.20;;
75139;SDS011;63714;55.812;37.658;2023-04-15T08:57:29;3.45;;;1.70;;
75139;SDS011;63714;55.812;37.658;2023-04-15T08:59:57;4.82;;;1.52;;
75139;SDS011;63714;55.812;37.658;2023-04-15T09:02:24;3.28;;;1.70;;
75139;SDS011;63714;55.812;37.658;2023-04-15T09:04:52;3.00;;;1.75;;
75139;SDS011;63714;55.812;37.658;2023-04-15T09:07:19;4.60;;;1.65;;
75139;SDS011;63714;55.812;37.658;2023-04-15T09:09:47;3.78;;;1.40;;
75139;SDS011;63714;55.812;37.658;2023-04-15T09:12:14;5.80;;;1.73;;
75139;SDS011;63714;55.812;37.658;2023-04-15T09:14:44;3.13;;;1.33;;
75139;SDS011;63714;55.812;37.658;2023-04-15T09:17:11;3.25;;;1.45;;
75139;SDS011;63714;55.812;37.658;2023-04-15T09:19:38;3.55;;;1.60;;
75139;SDS011;63714;55.812;37.658;2023-04-15T09:22:05;2.97;;;1.50;;
75139;SDS011;63714;55.812;37.658;2023-04-15T09:24:36;2.22;;;1.30;;
75139;SDS011;63714;55.812;37.658;2023-04-15T09:27:04;5.57;;;1.60;;
75139;SDS011;63714;55.812;37.658;2023-04-15T09:32:11;4.07;;;1.58;;
75139;SDS011;63714;55.812;37.658;2023-04-15T09:34:39;3.72;;;1.60;;
75139;SDS011;63714;55.812;37.658;2023-04-15T09:37:06;3.15;;;1.52;;
75139;SDS011;63714;55.812;37.658;2023-04-15T09:39:45;3.25;;;1.50;;
75139;SDS011;63714;55.812;37.658;2023-04-15T09:42:17;3.15;;;1.70;;
75139;SDS011;63714;55.812;37.658;2023-04-15T09:44:54;3.65;;;1.45;;
75139;SDS011;63714;55.812;37.658;2023-04-15T09:47:30;3.88;;;1.48;;
75139;SDS011;63714;55.812;37.658;2023-04-15T09:49:58;6.38;;;1.83;;
75139;SDS011;63714;55.812;37.658;2023-04-15T09:52:26;2.92;;;1.42;;
75139;SDS011;63714;55.812;37.658;2023-04-15T09:54:54;3.88;;;1.63;;
75139;SDS011;63714;55.812;37.658;2023-04-15T09:57:23;4.47;;;1.42;;
75139;SDS011;63714;55.812;37.658;2023-04-15T09:59:50;2.13;;;1.05;;
75139;SDS011;63714;55.812;37.658;2023-04-15T10:02:18;3.38;;;1.70;;
75139;SDS011;63714;55.812;37.658;2023-04-15T10:04:48;4.32;;;1.55;;
75139;SDS011;63714;55.812;37.658;2023-04-15T10:07:16;3.47;;;1.90;;
75139;SDS011;63714;55.812;37.658;2023-04-15T10:09:46;3.28;;;1.40;;
75139;SDS011;63714;55.812;37.658;2023-04-15T10:12:15;4.18;;;1.30;;
75139;SDS011;63714;55.812;37.658;2023-04-15T10:14:43;2.88;;;1.73;;
75139;SDS011;63714;55.812;37.658;2023-04-15T10:17:13;2.92;;;1.88;;
75139;SDS011;63714;55.812;37.658;2023-04-15T10:19:43;3.83;;;1.40;;
75139;SDS011;63714;55.812;37.658;2023-04-15T10:22:11;2.38;;;1.50;;
75139;SDS011;63714;55.812;37.658;2023-04-15T10:24:39;3.78;;;1.40;;
75139;SDS011;63714;55.812;37.658;2023-04-15T10:27:06;3.03;;;1.25;;
75139;SDS011;63714;55.812;37.658;2023-04-15T10:32:01;2.10;;;0.95;;
75139;SDS011;63714;55.812;37.658;2023-04-15T10:34:28;3.67;;;1.60;;
75139;SDS011;63714;55.812;37.658;2023-04-15T10:37:00;4.75;;;1.65;;
75139;SDS011;63714;55.812;37.658;2023-04-15T10:42:08;3.33;;;1.60;;
75139;SDS011;63714;55.812;37.658;2023-04-15T10:44:37;9.50;;;1.75;;
75139;SDS011;63714;55.812;37.658;2023-04-15T10:47:07;4.97;;;2.53;;
75139;SDS011;63714;55.812;37.658;2023-04-15T10:49:49;4.03;;;1.90;;
75139;SDS011;63714;55.812;37.658;2023-04-15T10:52:21;3.08;;;1.60;;
75139;SDS011;63714;55.812;37.658;2023-04-15T10:54:50;4.57;;;1.90;;
75139;SDS011;63714;55.812;37.658;2023-04-15T10:57:54;2.83;;;1.20;;
75139;SDS011;63714;55.812;37.658;2023-04-15T11:00:24;5.80;;;1.60;;
75139;SDS011;63714;55.812;37.658;2023-04-15T11:03:16;3.88;;;1.60;;
75139;SDS011;63714;55.812;37.658;2023-04-15T11:08:08;3.03;;;1.40;;
75139;SDS011;63714;55.812;37.658;2023-04-15T11:13:03;3.15;;;1.50;;
75139;SDS011;63714;55.812;37.658;2023-04-15T11:15:37;2.85;;;1.13;;
75139;SDS011;63714;55.812;37.658;2023-04-15T11:20:39;5.05;;;1.55;;
75139;SDS011;63714;55.812;37.658;2023-04-15T11:23:08;3.20;;;1.77;;
75139;SDS011;63714;55.812;37.658;2023-04-15T11:25:35;4.20;;;1.70;;
75139;SDS011;63714;55.812;37.658;2023-04-15T11:28:05;4.97;;;1.67;;
75139;SDS011;63714;55.812;37.658;2023-04-15T11:30:33;4.30;;;1.52;;
75139;SDS011;63714;55.812;37.658;2023-04-15T11:33:03;3.28;;;1.48;;
75139;SDS011;63714;55.812;37.658;2023-04-15T11:35:31;4.20;;;1.80;;
75139;SDS011;63714;55.812;37.658;2023-04-15T11:38:08;6.63;;;1.77;;
75139;SDS011;63714;55.812;37.658;2023-04-15T11:40:39;4.35;;;1.83;;
75139;SDS011;63714;55.812;37.658;2023-04-15T11:45:56;3.83;;;1.55;;
75139;SDS011;63714;55.812;37.658;2023-04-15T11:48:27;3.08;;;1.73;;
75139;SDS011;63714;55.812;37.658;2023-04-15T11:51:04;6.00;;;1.77;;
75139;SDS011;63714;55.812;37.658;2023-04-15T11:53:47;6.03;;;1.75;;
75139;SDS011;63714;55.812;37.658;2023-04-15T11:56:20;3.55;;;1.77;;
75139;SDS011;63714;55.812;37.658;2023-04-15T11:58:48;3.83;;;1.63;;
75139;SDS011;63714;55.812;37.658;2023-04-15T12:01:17;3.08;;;1.63;;
75139;SDS011;63714;55.812;37.658;2023-04-15T12:03:46;4.07;;;1.70;;
75139;SDS011;63714;55.812;37.658;2023-04-15T12:06:22;3.63;;;1.77;;
75139;SDS011;63714;55.812;37.658;2023-04-15T12:11:45;5.38;;;1.63;;
75139;SDS011;63714;55.812;37.658;2023-04-15T12:16:57;5.30;;;1.50;;
75139;SDS011;63714;55.812;37.658;2023-04-15T12:19:26;3.22;;;1.73;;
75139;SDS011;63714;55.812;37.658;2023-04-15T12:21:59;7.20;;;2.17;;
75139;SDS011;63714;55.812;37.658;2023-04-15T12:24:30;3.40;;;1.60;;
75139;SDS011;63714;55.812;37.658;2023-04-15T12:26:56;2.40;;;1.80;;
75139;SDS011;63714;55.812;37.658;2023-04-15T12:29:26;6.05;;;1.90;;
75139;SDS011;63714;55.812;37.658;2023-04-15T12:31:57;3.75;;;1.27;;
75139;SDS011;63714;55.812;37.658;2023-04-15T12:34:29;4.85;;;1.67;;
75139;SDS011;63714;55.812;37.658;2023-04-15T12:39:23;2.28;;;1.83;;
75139;SDS011;63714;55.812;37.658;2023-04-15T12:41:56;4.78;;;1.70;;
75139;SDS011;63714;55.812;37.658;2023-04-15T12:44:23;3.22;;;1.63;;
75139;SDS011;63714;55.812;37.658;2023-04-15T12:46:49;3.97;;;1.90;;
75139;SDS011;63714;55.812;37.658;2023-04-15T12:49:16;4.80;;;2.00;;
75139;SDS011;63714;55.812;37.658;2023-04-15T12:54:13;3.42;;;1.65;;
75139;SDS011;63714;55.812;37.658;2023-04-15T12:56:39;4.25;;;2.00;;
75139;SDS011;63714;55.812;37.658;2023-04-15T12:59:04;3.20;;;1.60;;
75139;SDS011;63714;55.812;37.658;2023-04-15T13:01:30;2.88;;;1.42;;
75139;SDS011;63714;55.812;37.658;2023-04-15T13:03:56;5.40;;;1.33;;
75139;SDS011;63714;55.812;37.658;2023-04-15T13:06:21;4.60;;;1.20;;
75139;SDS011;63714;55.812;37.658;2023-04-15T13:08:48;3.85;;;1.75;;
75139;SDS011;63714;55.812;37.658;2023-04-15T13:11:15;3.63;;;1.80;;
75139;SDS011;63714;55.812;37.658;2023-04-15T13:13:41;6.28;;;1.70;;
75139;SDS011;63714;55.812;37.658;2023-04-15T13:16:07;4.20;;;2.28;;
75139;SDS011;63714;55.812;37.658;2023-04-15T13:18:34;3.08;;;1.73;;
75139;SDS011;63714;55.812;37.658;2023-04-15T13:21:00;3.47;;;1.40;;
75139;SDS011;63714;55.812;37.658;2023-04-15T13:23:26;4.18;;;1.70;;
75139;SDS011;63714;55.812;37.658;2023-04-15T13:25:51;3.15;;;1.70;;
75139;SDS011;63714;55.812;37.658;2023-04-15T13:28:17;3.13;;;1.67;;
75139;SDS011;63714;55.812;37.658;2023-04-15T13:30:45;3.28;;;1.50;;
75139;SDS011;63714;55.812;37.658;2023-04-15T13:33:13;7.35;;;1.90;;
75139;SDS011;63714;55.812;37.658;2023-04-15T13:35:38;4.35;;;1.67;;
75139;SDS011;63714;55.812;37.658;2023-04-15T13:38:04;2.65;;;1.60;;
75139;SDS011;63714;55.812;37.658;2023-04-15T13:40:30;6.68;;;2.10;;
75139;SDS011;63714;55.812;37.658;2023-04-15T13:42:56;4.97;;;1.85;;
75139;SDS011;63714;55.812;37.658;2023-04-15T13:45:22;3.85;;;1.80;;
75139;SDS011;63714;55.812;37.658;2023-04-15T13:47:48;6.53;;;1.92;;
75139;SDS011;63714;55.812;37.658;2023-04-15T13:50:13;4.25;;;1.65;;
75139;SDS011;63714;55.812;37.658;2023-04-15T13:52:39;4.03;;;2.08;;
75139;SDS011;63714;55.812;37.658;2023-04-15T13:55:05;3.33;;;1.85;;
75139;SDS011;63714;55.812;37.658;2023-04-15T13:57:31;3.40;;;1.92;;
75139;SDS011;63714;55.812;37.658;2023-04-15T13:59:57;3.92;;;1.88;;
75139;SDS011;63714;55.812;37.658;2023-04-15T14:02:23;3.45;;;1.73;;
75139;SDS011;63714;55.812;37.658;2023-04-15T14:04:48;3.15;;;1.95;;
75139;SDS011;63714;55.812;37.658;2023-04-15T14:07:14;5.57;;;1.77;;
75139;SDS011;63714;55.812;37.658;2023-04-15T14:09:40;3.45;;;1.67;;
75139;SDS011;63714;55.812;37.658;2023-04-15T14:12:06;3.15;;;1.20;;
75139;SDS011;63714;55.812;37.658;2023-04-15T14:14:31;4.13;;;1.98;;
75139;SDS011;63714;55.812;37.658;2023-04-15T14:16:57;3.72;;;1.60;;
75139;SDS011;63714;55.812;37.658;2023-04-15T14:19:23;4.32;;;1.70;;
75139;SDS011;63714;55.812;37.658;2023-04-15T14:21:49;6.55;;;1.90;;
75139;SDS011;63714;55.812;37.658;2023-04-15T14:24:14;5.10;;;1.75;;
75139;SDS011;63714;55.812;37.658;2023-04-15T14:26:41;3.67;;;1.90;;
75139;SDS011;63714;55.812;37.658;2023-04-15T14:29:08;4.15;;;1.48;;
75139;SDS011;63714;55.812;37.658;2023-04-15T14:31:34;5.30;;;2.10;;
75139;SDS011;63714;55.812;37.658;2023-04-15T14:34:00;3.90;;;2.13;;
75139;SDS011;63714;55.812;37.658;2023-04-15T14:36:26;3.22;;;1.92;;
75139;SDS011;63714;55.812;37.658;2023-04-15T14:38:52;3.83;;;1.77;;
75139;SDS011;63714;55.812;37.658;2023-04-15T14:41:18;4.60;;;1.83;;
75139;SDS011;63714;55.812;37.658;2023-04-15T14:43:44;5.30;;;1.95;;
75139;SDS011;63714;55.812;37.658;2023-04-15T14:46:09;9.20;;;2.22;;
75139;SDS011;63714;55.812;37.658;2023-04-15T14:48:35;4.55;;;2.17;;
75139;SDS011;63714;55.812;37.658;2023-04-15T14:51:01;4.57;;;2.30;;
75139;SDS011;63714;55.812;37.658;2023-04-15T14:53:27;3.92;;;2.30;;
75139;SDS011;63714;55.812;37.658;2023-04-15T14:55:53;4.15;;;1.92;;
75139;SDS011;63714;55.812;37.658;2023-04-15T14:58:18;4.80;;;2.35;;
75139;SDS011;63714;55.812;37.658;2023-04-15T15:00:44;4.75;;;2.47;;
75139;SDS011;63714;55.812;37.658;2023-04-15T15:03:10;4.40;;;2.35;;
75139;SDS011;63714;55.812;37.658;2023-04-15T15:05:37;7.35;;;2.25;;
75139;SDS011;63714;55.812;37.658;2023-04-15T15:08:05;3.85;;;1.83;;